world map with MMJ marked

MMJ - Airport

This information may not be accurate or current and is not valid for navigation or flight planning. No warranty of fitness for any purpose is made or implied.

flag of Naganoflag of Japan

Donate via PayPal

Additional information is available on the NEW Great Circle Mapper

Location
City:  Matsumoto, Nagano, Japan
Name:Matsumoto Airport
ICAO / IATA:RJAF / MMJ

Details
Type:Airport (Aerodrome, Airfield)
Latitude:36°10'00"N (36.166758)
Longitude:137°55'22"E (137.922669)
Datum:WGS 1984
Elevation:2182 ft (665 m)
Runways:1
Longest:6560 × 150 ft (1999 × 45.5 m)

Time
Timezone:UTC+9 (DST+11)
Local Time:

Weather
METAR:RJAF  190700Z 35012KT 9999 VCSH FEW025 SCT030 BKN050 11/04 Q1014

Related Locations
Nearby:
Farthest:SUEX: 12280 mi / 19763 km
Montevideo East [Montevideo East UIR], UY

Find:

   beyond  
but within

Other Information
Maps:
Sources:

  


 


Great Circle Mapper   Great Circle Mapper
Great Circle Mapper FAQ   Great Circle Mapper FAQ
  Karl's Home Page
KLSē   KLSē Home
   GC on Facebook
Airlines of the World   Airlines of the World
Donate via PayPal


Copyright © 2004-2018, Karl L. Swartz. All rights reserved.
All trademarks mentioned herein belong to their respective owners.

Please see credits for attribution and copyright information.

Karl Swartz <karl@kls2.com>
  Powered by FreeBSD
Valid HTML 4.01!
Labeled with ICRA
hCard Microformat
Geo Microformat